Kinsale, Virginia
Current Conditions -  °F | °C
As of 1:53 AM on Wednesday 22 Oct 2014 (Local Time) from KNUI Reporting Station
Broken Clouds Broken Clouds  
Wind Chill: 56°   Ceiling: 12000
Heat Index: 56°   Visibility: 10mi
Dew Point: 50°   Wind: 6mph
Humidity: 80%   Direction: NA
Pressure: 29.83"   Gusts: NA
Location:  38.03°N, 76.58°W
Report Text: KNUI 220553Z AUTO VRB05KT 10SM SCT026 BKN120 13/10 A2983 RMK AO2 SLP100 60000 T01330100 10167 20133 58012
Loading
Personal Weather Stations






























Interactive Weather Map New forecast layout! Learn more

10-Day Weather Forecast

Advertisements
Track Severe Weather on mobile